createdAt,value
2024-03-06T00:02:24.713Z,101533.44
2024-03-06T00:04:51.570Z,101537.69
2024-03-06T00:07:18.302Z,101536.19
2024-03-06T00:09:45.860Z,101540.25
2024-03-06T00:12:12.561Z,101540.16
2024-03-06T00:14:40.517Z,101540.56
2024-03-06T00:17:08.327Z,101546.88
2024-03-06T00:19:35.412Z,101545.47
2024-03-06T00:22:02.423Z,101552.63
2024-03-06T00:24:29.326Z,101545.53
2024-03-06T00:26:56.006Z,101542.81
2024-03-06T00:29:22.604Z,101544.66
2024-03-06T00:31:50.547Z,101555.34
2024-03-06T00:34:17.191Z,101551.03
2024-03-06T00:36:44.726Z,101555.28
2024-03-06T00:39:11.477Z,101550.50
2024-03-06T00:41:38.282Z,101558.56
2024-03-06T00:44:05.138Z,101556.44
2024-03-06T00:46:31.724Z,101563.41
2024-03-06T00:48:59.718Z,101562.72
2024-03-06T00:51:36.629Z,101561.91
2024-03-06T00:54:08.315Z,101564.28
2024-03-06T00:56:38.556Z,101565.28
2024-03-06T00:59:05.192Z,101564.50
2024-03-06T01:01:31.867Z,101570.84
2024-03-06T01:03:59.828Z,101576.09
2024-03-06T01:06:26.372Z,101580.50
2024-03-06T01:08:53.035Z,101572.72
2024-03-06T01:11:19.674Z,101585.66
2024-03-06T01:13:46.368Z,101583.28
2024-03-06T01:16:13.010Z,101578.28
2024-03-06T01:18:39.583Z,101583.31
2024-03-06T01:21:07.533Z,101579.94
2024-03-06T01:23:34.162Z,101576.34
2024-03-06T01:26:00.830Z,101590.19
2024-03-06T01:28:27.385Z,101581.75
2024-03-06T01:30:54.103Z,101584.91
2024-03-06T01:33:20.819Z,101583.19
2024-03-06T01:35:47.445Z,101582.56
2024-03-06T01:38:16.985Z,101588.50
2024-03-06T01:40:44.650Z,101593.75
2024-03-06T01:43:20.358Z,101590.31
2024-03-06T01:45:48.174Z,101589.75
2024-03-06T01:48:15.181Z,101598.59
2024-03-06T01:50:42.036Z,101604.38
2024-03-06T01:53:09.296Z,101607.59
2024-03-06T01:55:37.437Z,101604.81
2024-03-06T01:58:04.779Z,101618.22
2024-03-06T02:00:31.519Z,101618.00
2024-03-06T02:02:58.114Z,101613.38
2024-03-06T02:05:24.769Z,101625.69
2024-03-06T02:07:53.949Z,101624.44
2024-03-06T02:10:20.549Z,101625.97
2024-03-06T02:12:50.015Z,101628.44
2024-03-06T02:15:16.854Z,101629.25
2024-03-06T02:17:43.480Z,101625.16
2024-03-06T02:20:13.513Z,101634.47
2024-03-06T02:22:41.699Z,101625.69
2024-03-06T02:25:08.492Z,101622.97
2024-03-06T02:27:35.088Z,101624.63
2024-03-06T02:30:01.647Z,101625.41
2024-03-06T02:32:28.442Z,101625.56
2024-03-06T02:34:55.031Z,101632.72
2024-03-06T02:37:21.677Z,101622.13
2024-03-06T02:39:49.709Z,101625.59
2024-03-06T02:42:16.312Z,101626.31
2024-03-06T02:44:42.913Z,101622.72
2024-03-06T02:47:09.769Z,101619.25
2024-03-06T02:49:36.520Z,101623.50
2024-03-06T02:52:03.527Z,101622.50
2024-03-06T02:54:30.335Z,101622.53
2024-03-06T02:56:58.343Z,101617.47
2024-03-06T02:59:25.456Z,101614.03
2024-03-06T03:01:52.003Z,101617.66
2024-03-06T03:04:19.457Z,101620.09
2024-03-06T03:06:45.966Z,101619.78
2024-03-06T03:09:13.054Z,101622.66
2024-03-06T03:11:39.850Z,101615.97
2024-03-06T03:14:07.959Z,101622.22
2024-03-06T03:16:34.732Z,101627.47
2024-03-06T03:19:01.431Z,101624.06
2024-03-06T03:21:27.994Z,101624.91
2024-03-06T03:23:54.620Z,101626.06
2024-03-06T03:26:21.887Z,101625.88
2024-03-06T03:28:49.676Z,101620.59
2024-03-06T03:31:17.640Z,101626.53
2024-03-06T03:33:44.563Z,101626.56
2024-03-06T03:36:11.216Z,101627.38
2024-03-06T03:38:41.135Z,101629.13
2024-03-06T03:41:08.971Z,101629.44
2024-03-06T03:43:35.611Z,101635.50
2024-03-06T03:46:02.180Z,101637.63
2024-03-06T03:48:30.079Z,101640.47
2024-03-06T03:50:56.668Z,101643.81
2024-03-06T03:53:23.393Z,101643.44
2024-03-06T03:55:49.972Z,101635.50
2024-03-06T03:58:16.563Z,101649.13
2024-03-06T04:00:43.670Z,101650.19
2024-03-06T04:03:10.188Z,101654.91
2024-03-06T04:05:38.182Z,101654.72
2024-03-06T04:08:07.529Z,101661.00
2024-03-06T04:10:34.874Z,101659.28
2024-03-06T04:13:01.596Z,101665.44
2024-03-06T04:15:28.251Z,101671.25
2024-03-06T04:17:54.876Z,101671.06
2024-03-06T04:20:21.484Z,101670.34
2024-03-06T04:22:51.947Z,101671.91
2024-03-06T04:25:19.119Z,101671.19
2024-03-06T04:27:45.952Z,101677.22
2024-03-06T04:30:15.959Z,101680.66
2024-03-06T04:32:42.585Z,101675.94
2024-03-06T04:35:12.961Z,101674.50
2024-03-06T04:37:40.210Z,101684.72
2024-03-06T04:40:09.769Z,101694.94
2024-03-06T04:42:39.365Z,101697.53
2024-03-06T04:45:12.193Z,101708.66
2024-03-06T04:47:39.102Z,101711.22
2024-03-06T04:50:09.581Z,101717.41
2024-03-06T04:52:36.298Z,101720.00
2024-03-06T04:55:04.144Z,101720.00
2024-03-06T04:57:32.077Z,101719.91
2024-03-06T04:59:59.595Z,101722.38
2024-03-06T05:02:28.652Z,101727.69
2024-03-06T05:59:49.621Z,101785.06
2024-03-06T06:02:17.578Z,101791.31
2024-03-06T06:04:51.746Z,101793.06
2024-03-06T06:07:26.945Z,101792.25
2024-03-06T06:09:53.546Z,101803.56
2024-03-06T06:12:20.096Z,101802.53
2024-03-06T06:14:46.616Z,101804.56
2024-03-06T06:17:16.619Z,101805.47
2024-03-06T06:19:45.059Z,101814.06
2024-03-06T06:22:13.525Z,101812.34
2024-03-06T06:24:40.257Z,101814.84
2024-03-06T06:27:06.845Z,101804.66
2024-03-06T06:29:33.516Z,101826.81
2024-03-06T06:32:00.134Z,101828.56
2024-03-06T06:34:29.708Z,101826.91
2024-03-06T06:36:57.629Z,101823.22
2024-03-06T06:39:24.231Z,101824.88
2024-03-06T06:41:50.830Z,101837.88
2024-03-06T06:44:17.495Z,101835.41
2024-03-06T06:46:44.106Z,101838.00
2024-03-06T06:49:10.723Z,101851.53
2024-03-06T06:51:37.329Z,101850.44
2024-03-06T06:54:05.445Z,101856.13
2024-03-06T06:56:32.279Z,101852.59
2024-03-06T06:58:59.059Z,101850.69
2024-03-06T07:01:25.760Z,101851.28
2024-03-06T07:03:53.071Z,101858.81
2024-03-06T07:06:19.688Z,101861.44
2024-03-06T07:08:46.406Z,101860.38
2024-03-06T07:11:14.537Z,101875.06
2024-03-06T07:13:41.212Z,101875.81
2024-03-06T07:16:08.252Z,101882.88
2024-03-06T07:18:34.945Z,101881.69
2024-03-06T07:21:02.028Z,101886.44
2024-03-06T07:23:28.625Z,101891.44
2024-03-06T07:25:55.638Z,101888.03
2024-03-06T07:28:23.568Z,101891.97
2024-03-06T07:30:50.133Z,101886.50
2024-03-06T07:33:16.736Z,101891.13
2024-03-06T07:35:43.343Z,101895.91
2024-03-06T07:38:10.989Z,101897.16
2024-03-06T07:40:37.582Z,101898.78
2024-03-06T07:43:05.331Z,101904.28
2024-03-06T07:45:33.328Z,101906.66
2024-03-06T07:47:59.962Z,101906.44
2024-03-06T07:50:27.628Z,101910.81
2024-03-06T07:52:55.843Z,101911.47
2024-03-06T07:55:23.155Z,101917.22
2024-03-06T07:57:49.779Z,101921.84
2024-03-06T08:00:16.984Z,101918.78
2024-03-06T08:02:44.967Z,101922.25
2024-03-06T08:05:13.567Z,101923.53
2024-03-06T08:07:42.967Z,101919.00
2024-03-06T08:10:10.599Z,101912.47
2024-03-06T08:12:37.240Z,101928.09
2024-03-06T08:15:04.370Z,101929.88
2024-03-06T08:17:31.019Z,101923.75
2024-03-06T08:19:59.004Z,101928.91
2024-03-06T08:22:25.528Z,101928.97
2024-03-06T08:24:52.136Z,101930.25
2024-03-06T08:27:18.719Z,101930.88
2024-03-06T08:29:45.419Z,101935.97
2024-03-06T08:32:12.157Z,101932.50
2024-03-06T08:34:38.807Z,101934.66
2024-03-06T08:37:07.278Z,101945.88
2024-03-06T08:39:33.931Z,101948.78
2024-03-06T08:42:01.483Z,101952.94
2024-03-06T08:44:29.250Z,101949.34
2024-03-06T08:46:55.898Z,101948.34
2024-03-06T08:49:22.558Z,101952.88
2024-03-06T08:51:49.140Z,101955.13
2024-03-06T08:54:17.065Z,101953.50
2024-03-06T08:56:44.885Z,101957.38
2024-03-06T08:59:11.501Z,101963.84
2024-03-06T09:01:38.093Z,101965.72
2024-03-06T09:04:04.820Z,101969.19
2024-03-06T09:06:31.415Z,101971.00
2024-03-06T09:08:57.979Z,101975.81
2024-03-06T09:11:26.038Z,101968.03
2024-03-06T09:13:52.671Z,101972.00
2024-03-06T09:16:19.419Z,101970.66
2024-03-06T09:18:45.973Z,101973.88
2024-03-06T09:21:12.533Z,101960.66
2024-03-06T09:23:39.219Z,101956.75
2024-03-06T09:26:07.088Z,101971.28
2024-03-06T09:28:35.206Z,101972.00
2024-03-06T09:31:02.447Z,101985.53
2024-03-06T09:33:29.033Z,101981.19
2024-03-06T09:35:58.542Z,101985.00
2024-03-06T09:38:25.251Z,101980.13
2024-03-06T09:40:52.966Z,101984.19
2024-03-06T09:43:19.590Z,101992.78
2024-03-06T09:45:49.782Z,101989.81
2024-03-06T09:48:17.686Z,101996.56
2024-03-06T09:50:46.488Z,101990.25
2024-03-06T09:53:13.902Z,101990.25
2024-03-06T09:55:42.082Z,101995.47
2024-03-06T09:58:09.686Z,101998.56
2024-03-06T10:00:36.863Z,101996.63
2024-03-06T10:03:09.599Z,102008.19
2024-03-06T10:05:36.392Z,102001.91
2024-03-06T10:08:03.385Z,102005.44
2024-03-06T10:10:29.974Z,102001.84
2024-03-06T10:12:58.502Z,101992.06
2024-03-06T10:15:27.644Z,102002.59
2024-03-06T10:17:54.363Z,102010.47
2024-03-06T10:20:23.660Z,102014.81
2024-03-06T10:22:53.942Z,102011.28
2024-03-06T10:25:22.809Z,102015.44
2024-03-06T10:28:04.337Z,102017.69
2024-03-06T10:30:31.852Z,102021.34
2024-03-06T10:32:59.445Z,102013.47
2024-03-06T10:35:27.453Z,102018.88
2024-03-06T10:37:55.707Z,102017.91
2024-03-06T10:40:24.032Z,102020.06
2024-03-06T10:42:50.748Z,102014.00
2024-03-06T10:45:17.830Z,102014.84
2024-03-06T10:47:51.413Z,102014.41
2024-03-06T10:50:19.812Z,102025.66
2024-03-06T10:52:48.461Z,102007.69
2024-03-06T10:55:16.830Z,102003.25
2024-03-06T10:57:44.094Z,102016.19
2024-03-06T11:00:11.241Z,102018.09
2024-03-06T11:02:39.056Z,102022.13
2024-03-06T11:05:06.711Z,102019.75
2024-03-06T11:07:33.931Z,102023.22
2024-03-06T11:10:02.568Z,102020.50
2024-03-06T11:12:36.971Z,102030.19
2024-03-06T11:15:10.323Z,102025.72
2024-03-06T11:17:37.672Z,102029.38
2024-03-06T11:20:26.772Z,102029.63
2024-03-06T11:23:11.993Z,102021.75
2024-03-06T11:26:05.439Z,102030.34
2024-03-06T11:28:33.932Z,102028.81
2024-03-06T11:31:02.545Z,102025.53
2024-03-06T11:33:39.617Z,102032.50
2024-03-06T11:36:19.983Z,102025.72
2024-03-06T11:38:53.999Z,102034.22
2024-03-06T11:41:25.758Z,102037.53
2024-03-06T11:43:56.933Z,102038.22
2024-03-06T11:46:24.522Z,102031.34
2024-03-06T11:48:55.121Z,102027.88
2024-03-06T11:51:22.224Z,102038.88
2024-03-06T11:53:50.764Z,102033.25
2024-03-06T11:56:18.538Z,102031.03
2024-03-06T11:58:49.300Z,102031.34
2024-03-06T12:01:16.463Z,102036.81
2024-03-06T12:03:43.408Z,102042.03
2024-03-06T12:06:10.456Z,102036.75
2024-03-06T12:08:39.861Z,102035.44
2024-03-06T12:11:06.703Z,102040.47
2024-03-06T12:13:33.647Z,102041.34
2024-03-06T12:16:05.245Z,102039.75
2024-03-06T12:18:31.901Z,102037.88
2024-03-06T12:21:01.753Z,102042.47
2024-03-06T12:23:28.401Z,102039.34
2024-03-06T12:28:31.811Z,102036.88
2024-03-06T12:31:02.095Z,102037.91
2024-03-06T12:33:30.133Z,102036.97
2024-03-06T12:36:04.150Z,102021.81
2024-03-06T12:38:30.978Z,102032.56
2024-03-06T12:40:57.602Z,102030.41
2024-03-06T12:43:25.240Z,102031.78
2024-03-06T12:45:52.062Z,102031.53
2024-03-06T12:48:18.723Z,102031.41
2024-03-06T12:50:52.323Z,102029.53
2024-03-06T12:53:19.855Z,102028.13
2024-03-06T12:55:46.929Z,102030.19
2024-03-06T12:58:13.636Z,102030.56
2024-03-06T13:00:40.452Z,102026.50
2024-03-06T13:03:07.777Z,102022.19
2024-03-06T13:05:34.532Z,102027.09
2024-03-06T13:08:02.732Z,102025.13
2024-03-06T13:10:29.460Z,102021.66
2024-03-06T13:12:56.110Z,102021.41
2024-03-06T13:15:23.159Z,102022.75
2024-03-06T13:17:49.944Z,102017.13
2024-03-06T13:20:16.987Z,102016.63
2024-03-06T13:22:45.194Z,102022.09
2024-03-06T13:25:13.177Z,102020.72
2024-03-06T13:27:39.692Z,102021.97
2024-03-06T13:30:09.350Z,102019.28
2024-03-06T13:32:36.313Z,102020.25
2024-03-06T13:35:03.394Z,102024.84
2024-03-06T13:37:30.143Z,102032.84
2024-03-06T13:40:01.572Z,102032.06
2024-03-06T13:42:29.741Z,102034.44
2024-03-06T13:44:56.887Z,102033.34
2024-03-06T13:47:23.473Z,102033.25
2024-03-06T13:49:50.422Z,102036.94
2024-03-06T13:52:21.056Z,102029.06
2024-03-06T13:54:51.078Z,102033.25
2024-03-06T13:57:17.639Z,102029.84
2024-03-06T13:59:45.770Z,102026.13
2024-03-06T14:02:12.474Z,102036.22
2024-03-06T14:04:39.088Z,102028.13
2024-03-06T14:07:05.767Z,102028.69
2024-03-06T14:09:32.424Z,102027.84
2024-03-06T14:11:59.419Z,102032.28
2024-03-06T14:14:26.438Z,102034.97
2024-03-06T14:16:54.479Z,102042.44
2024-03-06T14:19:22.669Z,102043.19
2024-03-06T14:21:49.234Z,102040.31
2024-03-06T14:24:15.967Z,102039.38
2024-03-06T14:26:42.957Z,102047.78
2024-03-06T14:29:10.790Z,102040.22
2024-03-06T14:31:37.732Z,102041.97
2024-03-06T14:34:06.926Z,102042.16
2024-03-06T14:36:35.258Z,102037.22
2024-03-06T14:39:02.089Z,102039.69
2024-03-06T14:41:28.825Z,102038.69
2024-03-06T14:43:55.569Z,102041.59
2024-03-06T14:46:22.271Z,102044.56
2024-03-06T14:48:48.969Z,102039.97
2024-03-06T14:51:16.992Z,102039.84
2024-03-06T14:53:43.804Z,102042.25
2024-03-06T14:56:11.926Z,102035.03
2024-03-06T14:58:39.066Z,102039.56
2024-03-06T15:01:06.167Z,102034.06
2024-03-06T15:03:32.898Z,102040.13
2024-03-06T15:05:59.572Z,102050.75
2024-03-06T15:08:27.630Z,102043.25
2024-03-06T15:10:55.192Z,102048.97
2024-03-06T15:13:23.884Z,102056.38
2024-03-06T15:15:51.693Z,102051.44
2024-03-06T15:18:18.850Z,102049.00
2024-03-06T15:20:45.825Z,102052.53
2024-03-06T15:23:12.672Z,102056.88
2024-03-06T15:25:40.787Z,102057.56
2024-03-06T15:28:07.565Z,102054.41
2024-03-06T15:30:35.641Z,102058.63
2024-03-06T15:33:04.189Z,102051.41
2024-03-06T15:35:31.061Z,102053.41
2024-03-06T15:37:57.690Z,102054.22
2024-03-06T15:40:24.373Z,102055.75
2024-03-06T15:42:54.250Z,102060.75
2024-03-06T15:45:23.258Z,102055.47
2024-03-06T15:47:49.953Z,102031.25
2024-03-06T15:50:16.780Z,102059.09
2024-03-06T15:52:43.467Z,102058.75
2024-03-06T15:55:10.778Z,102067.25
2024-03-06T15:57:37.440Z,102061.03
2024-03-06T16:00:10.505Z,102046.66
2024-03-06T16:02:37.144Z,102057.59
2024-03-06T16:05:04.124Z,102057.31
2024-03-06T16:07:34.520Z,102065.97
2024-03-06T16:10:02.458Z,102060.56
2024-03-06T16:12:29.066Z,102064.81
2024-03-06T16:14:55.785Z,102064.28
2024-03-06T16:17:23.731Z,102065.28
2024-03-06T16:19:50.340Z,102065.19
2024-03-06T16:22:16.857Z,102064.22
2024-03-06T16:24:44.004Z,102067.44
2024-03-06T16:27:10.453Z,102069.31
2024-03-06T16:29:37.143Z,102068.75
2024-03-06T16:32:04.451Z,102070.06
2024-03-06T16:34:33.700Z,102076.25
2024-03-06T16:37:00.731Z,102069.13
2024-03-06T16:39:27.341Z,102074.47
2024-03-06T16:41:53.961Z,102076.03
2024-03-06T16:44:21.970Z,102084.88
2024-03-06T16:46:50.095Z,102082.91
2024-03-06T16:49:16.611Z,102089.91
2024-03-06T16:51:44.589Z,102084.91
2024-03-06T16:54:11.127Z,102087.44
2024-03-06T16:56:39.309Z,102090.28
2024-03-06T16:59:08.193Z,102092.66
2024-03-06T17:01:34.925Z,102094.88
2024-03-06T17:04:01.591Z,102097.94
2024-03-06T17:06:32.232Z,102105.38
2024-03-06T17:09:00.296Z,102097.31
2024-03-06T17:11:27.002Z,102103.19
2024-03-06T17:13:53.735Z,102103.34
2024-03-06T17:16:20.319Z,102105.06
2024-03-06T17:18:46.986Z,102110.59
2024-03-06T17:21:13.812Z,102103.34
2024-03-06T17:23:40.416Z,102106.91
2024-03-06T17:26:11.711Z,102116.59
2024-03-06T17:28:41.158Z,102121.56
2024-03-06T17:31:08.365Z,102126.84
2024-03-06T17:33:34.794Z,102128.19
2024-03-06T17:36:01.482Z,102135.72
2024-03-06T17:38:29.081Z,102142.28
2024-03-06T17:40:55.683Z,102148.06
2024-03-06T17:43:23.618Z,102145.03
2024-03-06T17:45:50.463Z,102148.91
2024-03-06T17:48:17.170Z,102149.72
2024-03-06T17:50:45.923Z,102148.50
2024-03-06T17:53:14.211Z,102156.63
2024-03-06T17:55:40.890Z,102153.19
2024-03-06T17:58:07.950Z,102154.34
2024-03-06T18:00:35.880Z,102157.88
2024-03-06T18:03:02.570Z,102158.41
2024-03-06T18:05:29.208Z,102174.44
2024-03-06T18:07:56.671Z,102170.81
2024-03-06T18:10:24.051Z,102173.44
2024-03-06T18:12:50.430Z,102179.41
2024-03-06T18:15:17.161Z,102172.81
2024-03-06T18:17:45.177Z,102172.16
2024-03-06T18:20:12.595Z,102171.41
2024-03-06T18:22:39.242Z,102173.44
2024-03-06T18:25:07.974Z,102180.56
2024-03-06T18:27:35.008Z,102176.00
2024-03-06T18:30:01.641Z,102180.88
2024-03-06T18:32:29.888Z,102179.31
2024-03-06T18:34:59.025Z,102178.53
2024-03-06T18:37:26.040Z,102171.88
2024-03-06T18:39:54.433Z,102176.44
2024-03-06T18:42:22.266Z,102187.91
2024-03-06T18:44:49.795Z,102169.59
2024-03-06T18:47:16.788Z,102184.19
2024-03-06T18:49:43.434Z,102182.47
2024-03-06T18:52:11.670Z,102183.50
2024-03-06T18:54:40.591Z,102196.59
2024-03-06T18:57:07.619Z,102194.94
2024-03-06T18:59:34.546Z,102196.91
2024-03-06T19:02:01.398Z,102194.41
2024-03-06T19:04:28.004Z,102196.47
2024-03-06T19:06:54.614Z,102198.03
2024-03-06T19:09:22.616Z,102198.44
2024-03-06T19:11:51.471Z,102202.34
2024-03-06T19:14:18.299Z,102205.28
2024-03-06T19:16:45.044Z,102199.03
2024-03-06T19:19:11.661Z,102198.97
2024-03-06T19:21:38.407Z,102204.44
2024-03-06T19:24:05.371Z,102201.88
2024-03-06T19:26:36.645Z,102204.38
2024-03-06T19:29:03.544Z,102205.50
2024-03-06T19:31:31.966Z,102211.28
2024-03-06T19:33:59.515Z,102205.38
2024-03-06T19:36:26.275Z,102208.09
2024-03-06T19:38:52.855Z,102205.50
2024-03-06T19:41:19.604Z,102202.81
2024-03-06T19:43:47.575Z,102205.66
2024-03-06T19:46:14.122Z,102203.50
2024-03-06T19:48:41.532Z,102206.38
2024-03-06T19:51:09.221Z,102202.13
2024-03-06T19:53:35.980Z,102207.34
2024-03-06T19:56:03.046Z,102208.44
2024-03-06T19:58:29.618Z,102208.13
2024-03-06T20:00:57.669Z,102207.50
2024-03-06T20:03:24.194Z,102211.66
2024-03-06T20:05:50.898Z,102164.91
2024-03-06T20:08:17.758Z,102211.03
2024-03-06T20:10:44.563Z,102222.19
2024-03-06T20:13:11.224Z,102213.97
2024-03-06T20:15:37.801Z,102211.41
2024-03-06T20:18:09.075Z,102211.75
2024-03-06T20:20:35.748Z,102222.88
2024-03-06T20:23:08.093Z,102213.84
2024-03-06T20:25:35.478Z,102212.09
2024-03-06T20:28:02.213Z,102219.47
2024-03-06T20:30:28.852Z,102213.59
2024-03-06T20:32:55.737Z,102223.06
2024-03-06T20:35:24.910Z,102191.59
2024-03-06T20:37:51.767Z,102223.00
2024-03-06T20:40:18.568Z,102228.31
2024-03-06T20:42:45.980Z,102234.69
2024-03-06T20:45:14.012Z,102224.66
2024-03-06T20:47:44.033Z,102230.44
2024-03-06T20:50:11.658Z,102225.38
2024-03-06T20:52:40.978Z,102232.72
2024-03-06T20:55:08.657Z,102232.53
2024-03-06T20:57:35.231Z,102232.00
2024-03-06T21:00:01.864Z,102234.91
2024-03-06T21:02:28.436Z,102233.81
2024-03-06T21:04:55.492Z,102232.97
2024-03-06T21:07:22.349Z,102238.91
2024-03-06T21:09:50.375Z,102236.47
2024-03-06T21:12:17.179Z,102236.47
2024-03-06T21:14:44.897Z,102234.06
2024-03-06T21:17:11.727Z,102240.72
2024-03-06T21:19:38.643Z,102230.97
2024-03-06T21:22:05.902Z,102237.31
2024-03-06T21:24:33.665Z,102237.97
2024-03-06T21:27:03.250Z,102234.06
2024-03-06T21:29:30.807Z,102234.63
2024-03-06T21:31:57.626Z,102225.84
2024-03-06T21:34:24.253Z,102232.06
2024-03-06T21:36:50.915Z,102236.22
2024-03-06T21:39:17.442Z,102233.16
2024-03-06T21:41:44.214Z,102234.25
2024-03-06T21:44:12.255Z,102239.53
2024-03-06T21:46:38.962Z,102237.41
2024-03-06T21:49:05.590Z,102237.56
2024-03-06T21:51:32.129Z,102228.09
2024-03-06T21:53:59.639Z,102241.09
2024-03-06T21:56:26.318Z,102242.81
2024-03-06T21:58:52.968Z,102239.41
2024-03-06T22:01:21.901Z,102237.88
2024-03-06T22:03:48.544Z,102243.78
2024-03-06T22:06:15.287Z,102235.44
2024-03-06T22:08:43.609Z,102236.94
2024-03-06T22:11:12.555Z,102245.03
2024-03-06T22:13:39.386Z,102247.72
2024-03-06T22:16:06.238Z,102252.19
2024-03-06T22:18:34.241Z,102242.03
2024-03-06T22:21:00.898Z,102247.19
2024-03-06T22:23:29.953Z,102251.53
2024-03-06T22:25:56.606Z,102253.25
2024-03-06T22:28:23.245Z,102254.09
2024-03-06T22:30:49.852Z,102255.69
2024-03-06T22:33:16.469Z,102262.00
2024-03-06T22:35:45.962Z,102258.56
2024-03-06T22:38:12.974Z,102255.94
2024-03-06T22:40:39.610Z,102253.56
2024-03-06T22:43:06.441Z,102258.16
2024-03-06T22:45:33.267Z,102257.31
2024-03-06T22:48:00.108Z,102254.69
2024-03-06T22:50:27.103Z,102263.28
2024-03-06T22:52:55.071Z,102259.19
2024-03-06T22:55:22.299Z,102260.06
2024-03-06T22:57:48.915Z,102262.81
2024-03-06T23:00:30.230Z,102254.00
2024-03-06T23:02:57.758Z,102258.56
2024-03-06T23:05:25.317Z,102256.25
2024-03-06T23:07:52.314Z,102252.81
2024-03-06T23:10:20.731Z,102255.41
2024-03-06T23:12:47.958Z,102245.16
2024-03-06T23:15:15.980Z,102254.59
2024-03-06T23:17:45.775Z,102251.84
2024-03-06T23:20:15.129Z,102253.03
2024-03-06T23:22:42.372Z,102255.72
2024-03-06T23:25:09.917Z,102239.31
2024-03-06T23:27:37.983Z,102244.34
2024-03-06T23:30:08.234Z,102250.50
2024-03-06T23:32:35.673Z,102255.88
2024-03-06T23:35:04.779Z,102250.00
2024-03-06T23:37:31.726Z,102248.31
2024-03-06T23:39:58.281Z,102254.31
2024-03-06T23:42:24.820Z,102264.03
2024-03-06T23:44:52.749Z,102258.03
2024-03-06T23:47:19.377Z,102261.44
2024-03-06T23:49:45.904Z,102257.63
2024-03-06T23:52:16.790Z,102260.06
2024-03-06T23:54:43.397Z,102260.84
2024-03-06T23:57:10.228Z,102262.44
2024-03-06T23:59:36.864Z,102263.19
